Time;durP1;ratioP1;P1;durP2;ratioP2;P2;SDS_P1;SDS_P2;PMS_P1;PMS_P2;Temp;Humidity;BMP_temperature;BMP_pressure;BME280_temperature;BME280_humidity;BME280_pressure;Samples;Min_cycle;Max_cycle;Signal;HPM_P1;HPM_P2
2022/11/06 00:15:41;;;;;;;5.20;4.03;;;;;;;2.31;100.00;98166.28;18567912;32;20048;-63
2022/11/06 00:25:44;;;;;;;10.97;7.17;;;;;;;2.37;100.00;98123.59;18550274;31;20369;-64
2022/11/06 00:35:46;;;;;;;6.73;5.00;;;;;;;2.33;100.00;98108.19;18570593;32;20049;-64
2022/11/06 00:45:49;;;;;;;7.40;4.47;;;;;;;2.13;100.00;98103.69;18570205;32;20073;-64
2022/11/06 00:55:51;;;;;;;6.03;3.97;;;;;;;1.92;100.00;98086.03;18554770;32;20068;-64
2022/11/06 01:05:54;;;;;;;6.30;4.23;;;;;;;1.77;100.00;98112.88;18568510;32;20127;-64
2022/11/06 01:15:56;;;;;;;7.40;4.63;;;;;;;1.77;100.00;98117.38;18567868;32;20057;-64
2022/11/06 01:26:01;;;;;;;8.20;5.00;;;;;;;1.70;100.00;98098.72;18566747;32;20068;-63
2022/11/06 01:36:04;;;;;;;8.88;5.20;;;;;;;1.63;100.00;98080.03;18566772;32;20083;-64
2022/11/06 01:46:06;;;;;;;6.63;4.30;;;;;;;1.64;100.00;98075.53;18566933;32;20101;-64
2022/11/06 01:56:12;;;;;;;6.23;4.20;;;;;;;1.50;100.00;98093.34;18565372;32;20052;-64
2022/11/06 02:06:15;;;;;;;;;;;;;;;1.49;100.00;98081.03;18565141;32;20113;-64
2022/11/06 02:16:43;;;;;;;5.90;4.10;;;;;;;1.39;100.00;98068.09;18557835;32;20285;-64
2022/11/06 02:27:22;;;;;;;6.63;3.93;;;;;;;1.30;100.00;98031.97;18563678;32;20049;-64
2022/11/06 02:37:29;;;;;;;6.00;4.30;;;;;;;1.34;100.00;98002.09;18562954;32;20060;-64
2022/11/06 02:47:33;;;;;;;6.93;3.97;;;;;;;1.40;100.00;97991.63;18548270;32;20072;-64
2022/11/06 02:57:45;;;;;;;6.93;4.57;;;;;;;1.29;100.00;97969.91;18561486;32;20053;-64
2022/11/06 03:07:54;;;;;;;6.00;3.87;;;;;;;1.23;100.00;97961.91;18547331;32;20078;-64
2022/11/06 03:18:08;;;;;;;6.57;4.33;;;;;;;1.23;100.00;97962.72;18560974;32;20044;-64
2022/11/06 03:28:17;;;;;;;8.63;4.67;;;;;;;1.16;100.00;97977.88;18560676;32;20053;-64
2022/11/06 03:38:39;;;;;;;5.63;4.07;;;;;;;1.18;100.00;97950.00;18560433;32;20056;-64
2022/11/06 03:48:49;;;;;;;5.93;4.30;;;;;;;1.09;100.00;97951.22;18552936;32;20079;-64
2022/11/06 03:58:55;;;;;;;6.80;3.70;;;;;;;1.06;100.00;97948.16;18572861;32;20048;-64
2022/11/06 04:19:24;;;;;;;7.73;4.27;;;;;;;0.88;100.00;97938.06;18571552;32;20049;-64
2022/11/06 04:29:32;;;;;;;6.00;3.80;;;;;;;0.81;100.00;97917.56;18571303;32;20113;-64
2022/11/06 04:40:22;;;;;;;5.37;3.00;;;;;;;0.73;100.00;97914.28;18556368;32;20053;-64
2022/11/06 04:50:28;;;;;;;6.43;3.87;;;;;;;0.63;100.00;97931.44;18239620;32;20121;-64
2022/11/06 05:00:30;;;;;;;6.17;3.10;;;;;;;0.66;100.00;97914.25;18193784;32;20082;-64
2022/11/06 05:10:34;;;;;;;5.17;3.37;;;;;;;0.59;100.00;97910.75;18175981;32;20117;-64
2022/11/06 05:20:37;;;;;;;6.27;3.27;;;;;;;0.65;100.00;97886.81;18270426;32;20049;-64
2022/11/06 05:30:40;;;;;;;7.33;4.27;;;;;;;0.90;100.00;97880.13;18428067;32;20467;-64
2022/11/06 05:40:43;;;;;;;6.73;4.27;;;;;;;1.09;100.00;97871.31;18427728;32;20065;-64
2022/11/06 05:50:47;;;;;;;6.10;4.30;;;;;;;1.21;100.00;97844.91;18426967;32;20057;-64
2022/11/06 06:00:50;;;;;;;5.50;3.90;;;;;;;1.23;100.00;97847.34;18436983;32;20362;-64
2022/11/06 06:10:52;;;;;;;5.93;3.90;;;;;;;1.38;100.00;97831.16;18499350;32;20065;-64
2022/11/06 06:20:57;;;;;;;9.10;6.17;;;;;;;1.35;100.00;97814.56;18499253;32;20108;-64
2022/11/06 06:31:04;;;;;;;8.30;5.43;;;;;;;1.54;100.00;97780.09;18499200;32;20071;-64
2022/11/06 06:41:08;;;;;;;7.73;5.57;;;;;;;1.75;100.00;97781.66;18496733;32;20045;-64
2022/11/06 06:51:10;;;;;;;10.20;6.33;;;;;;;1.92;100.00;97778.53;18497193;32;20057;-64
2022/11/06 07:01:13;;;;;;;8.60;5.07;;;;;;;2.07;100.00;97765.75;18548076;31;20048;-64
2022/11/06 07:11:17;;;;;;;9.70;5.40;;;;;;;2.21;100.00;97769.16;18561820;32;20420;-64
2022/11/06 07:21:19;;;;;;;8.87;5.73;;;;;;;2.45;100.00;97758.75;18560514;32;20429;-64
2022/11/06 07:31:21;;;;;;;9.60;6.03;;;;;;;2.75;100.00;97760.81;18560761;32;20101;-64
2022/11/06 07:41:24;;;;;;;13.00;6.27;;;;;;;3.15;100.00;97749.78;18560328;32;20048;-64
2022/11/06 07:51:26;;;;;;;7.33;5.67;;;;;;;3.50;100.00;97742.03;18545630;32;20093;-64
2022/11/06 08:01:30;;;;;;;7.03;5.37;;;;;;;3.89;100.00;97750.63;18559489;32;20064;-64
2022/11/06 08:11:32;;;;;;;6.23;4.73;;;;;;;4.31;100.00;97752.53;18559245;32;20061;-64
2022/11/06 08:21:35;;;;;;;7.57;4.50;;;;;;;4.53;100.00;97760.87;18558965;32;20372;-64
2022/11/06 08:31:37;;;;;;;5.67;3.73;;;;;;;4.77;100.00;97760.94;18560530;32;20444;-64
2022/11/06 08:41:40;;;;;;;5.03;3.90;;;;;;;5.14;100.00;97749.22;18563689;32;20089;-64
2022/11/06 08:51:42;;;;;;;10.40;6.50;;;;;;;5.43;100.00;97726.00;18569680;32;20411;-64
2022/11/06 09:01:45;;;;;;;13.03;7.47;;;;;;;5.58;100.00;97739.75;18568599;32;20112;-64
2022/11/06 09:11:48;;;;;;;13.87;7.30;;;;;;;5.80;100.00;97722.19;18554369;32;20044;-64
2022/11/06 09:21:50;;;;;;;10.10;7.37;;;;;;;5.93;100.00;97697.75;18415755;32;20508;-64
2022/11/06 09:31:56;;;;;;;10.07;6.37;;;;;;;6.00;100.00;97692.28;18364120;32;20065;-64
2022/11/06 09:42:46;;;;;;;11.43;7.47;;;;;;;5.98;100.00;97679.13;18362420;32;20069;-63
2022/11/06 09:53:06;;;;;;;11.10;6.93;;;;;;;6.05;100.00;97663.66;18165469;32;20078;-63
2022/11/06 10:03:31;;;;;;;12.20;7.53;;;;;;;6.24;100.00;97647.38;18228752;32;20058;-63
2022/11/06 10:13:55;;;;;;;10.50;6.90;;;;;;;6.68;100.00;97642.16;18234062;32;20110;-63
2022/11/06 10:24:04;;;;;;;8.90;6.30;;;;;;;6.98;100.00;97646.37;18408846;32;20069;-63
2022/11/06 10:34:16;;;;;;;10.03;6.23;;;;;;;7.15;100.00;97637.44;18424566;32;20123;-63
2022/11/06 10:44:24;;;;;;;10.03;5.80;;;;;;;7.32;100.00;97616.69;18411021;32;20099;-64
2022/11/06 10:54:54;;;;;;;8.43;5.73;;;;;;;7.67;100.00;97601.22;18435384;32;20053;-63
2022/11/06 11:04:57;;;;;;;6.70;5.30;;;;;;;8.01;100.00;97585.66;18561730;32;20508;-63
2022/11/06 11:15:14;;;;;;;6.97;4.80;;;;;;;7.97;100.00;97563.03;18561457;32;20471;-62
2022/11/06 11:25:24;;;;;;;6.87;4.43;;;;;;;8.06;100.00;97545.34;18553853;32;20090;-63
2022/11/06 11:35:30;;;;;;;6.10;4.33;;;;;;;8.31;100.00;97525.84;18546677;32;20087;-62
2022/11/06 11:45:32;;;;;;;6.87;4.55;;;;;;;8.61;97.57;97504.78;18560194;32;20460;-62
2022/11/06 11:55:42;;;;;;;5.93;3.93;;;;;;;8.95;93.83;97499.03;18545020;32;20057;-63
2022/11/06 12:05:46;;;;;;;5.03;3.80;;;;;;;9.22;96.64;97485.34;18358121;32;20073;-63
2022/11/06 12:16:02;;;;;;;4.97;3.80;;;;;;;9.20;90.78;97490.19;18368798;32;20065;-62
2022/11/06 12:26:17;;;;;;;6.13;3.37;;;;;;;9.21;91.15;97469.41;18368011;32;20049;-62
2022/11/06 12:36:28;;;;;;;4.90;3.40;;;;;;;9.01;91.76;97452.12;18537062;32;20096;-62
2022/11/06 12:47:08;;;;;;;4.73;3.13;;;;;;;8.95;94.21;97447.78;18570233;32;20091;-62
2022/11/06 12:57:29;;;;;;;5.43;3.60;;;;;;;8.96;95.79;97441.31;18568897;32;20060;-62
2022/11/06 13:07:58;;;;;;;4.80;3.53;;;;;;;9.26;92.25;97427.09;18568238;32;20108;-62
2022/11/06 13:18:15;;;;;;;6.13;3.37;;;;;;;9.47;91.54;97427.94;18566852;32;20108;-62
2022/11/06 13:28:33;;;;;;;3.77;3.10;;;;;;;9.43;88.98;97412.56;18554705;32;20049;-62
2022/11/06 13:38:45;;;;;;;3.90;2.70;;;;;;;9.26;89.78;97408.22;18552925;32;20421;-62
2022/11/06 13:49:19;;;;;;;2.87;2.27;;;;;;;9.28;89.47;97406.06;18551938;32;20079;-62
2022/11/06 13:59:46;;;;;;;4.43;3.23;;;;;;;9.30;91.80;97416.56;18565475;32;20085;-62
2022/11/06 14:09:49;;;;;;;3.77;3.10;;;;;;;9.13;90.04;97423.03;18564896;32;20427;-65
2022/11/06 14:20:00;;;;;;;5.07;3.60;;;;;;;8.96;92.20;97419.72;18550538;32;20052;-63
2022/11/06 14:30:06;;;;;;;6.10;3.23;;;;;;;9.02;91.11;97417.84;18563344;32;20081;-62
2022/11/06 14:40:12;;;;;;;4.03;2.90;;;;;;;9.15;91.70;97406.56;18475643;32;20068;-62
2022/11/06 14:50:18;;;;;;;5.10;3.43;;;;;;;8.94;92.82;97409.22;18488162;32;20073;-62
2022/11/06 15:00:49;;;;;;;4.20;3.20;;;;;;;8.70;93.43;97424.22;18474626;32;20594;-62
2022/11/06 15:10:53;;;;;;;6.40;3.37;;;;;;;8.41;94.38;97420.03;18549015;32;20393;-62
2022/11/06 15:21:02;;;;;;;4.53;3.23;;;;;;;8.18;96.64;97406.97;18546309;32;20127;-62
2022/11/06 15:31:11;;;;;;;6.10;2.90;;;;;;;8.00;98.13;97409.03;18560734;32;20411;-62
2022/11/06 15:41:23;;;;;;;5.50;3.47;;;;;;;7.84;98.58;97420.75;18562721;32;20053;-62
2022/11/06 15:51:28;;;;;;;4.30;3.20;;;;;;;7.65;96.82;97421.19;18566769;32;20067;-62
2022/11/06 16:01:32;;;;;;;3.85;3.25;;;;;;;7.49;98.81;97427.50;18545738;32;20072;-63
2022/11/06 16:11:35;;;;;;;3.80;3.07;;;;;;;7.34;100.00;97428.97;18572178;32;20053;-62
2022/11/06 16:21:38;;;;;;;5.00;3.37;;;;;;;7.19;100.00;97439.59;18571682;32;20113;-62
2022/11/06 16:31:41;;;;;;;4.57;2.97;;;;;;;7.07;100.00;97467.44;18571356;32;20386;-62
2022/11/06 16:41:56;;;;;;;5.20;3.10;;;;;;;6.88;100.00;97476.88;18431340;32;20087;-62
2022/11/06 16:51:59;;;;;;;8.13;4.33;;;;;;;6.76;100.00;97469.75;18430429;32;20116;-62
2022/11/06 17:02:03;;;;;;;4.37;3.07;;;;;;;6.74;100.00;97461.16;18417510;32;20118;-62
2022/11/06 17:12:09;;;;;;;4.07;3.17;;;;;;;6.75;100.00;97468.13;18489436;32;20342;-62
2022/11/06 17:22:12;;;;;;;3.90;2.80;;;;;;;6.76;100.00;97491.25;18503210;32;20130;-62
2022/11/06 17:32:15;;;;;;;5.40;3.00;;;;;;;6.76;100.00;97502.00;18501826;32;20441;-62
2022/11/06 17:42:18;;;;;;;3.97;2.70;;;;;;;6.83;100.00;97530.59;18501562;32;20385;-62
2022/11/06 17:52:20;;;;;;;4.43;2.73;;;;;;;6.85;100.00;97590.25;18500951;32;20049;-62
2022/11/06 18:02:23;;;;;;;3.20;2.80;;;;;;;6.87;100.00;97606.97;18555453;32;20099;-62
2022/11/06 18:12:50;;;;;;;4.17;3.30;;;;;;;6.91;100.00;97611.59;18565016;32;20052;-62
2022/11/06 18:22:52;;;;;;;3.83;3.00;;;;;;;6.97;100.00;97647.41;18564531;32;20112;-62
2022/11/06 18:32:57;;;;;;;6.70;5.33;;;;;;;6.96;100.00;97648.47;18563647;32;20429;-62
2022/11/06 18:42:59;;;;;;;8.18;5.20;;;;;;;6.97;100.00;97650.09;18562860;32;20057;-62
2022/11/06 18:53:03;;;;;;;5.13;3.97;;;;;;;7.01;100.00;97637.78;18548494;32;20095;-62
2022/11/06 19:03:06;;;;;;;6.00;4.13;;;;;;;7.00;100.00;97654.97;18561754;32;20056;-62
2022/11/06 19:13:09;;;;;;;7.13;4.83;;;;;;;7.03;100.00;97665.25;18547478;32;20057;-62
2022/11/06 19:23:13;;;;;;;6.23;4.80;;;;;;;7.06;100.00;97683.56;18561076;32;20433;-62
2022/11/06 19:33:17;;;;;;;6.70;4.90;;;;;;;7.06;100.00;97691.66;18560553;32;20441;-62
2022/11/06 19:43:19;;;;;;;8.33;5.30;;;;;;;7.11;100.00;97690.91;18546838;32;20060;-62
2022/11/06 19:53:23;;;;;;;9.03;5.77;;;;;;;7.10;100.00;97683.91;18560141;32;20064;-62
2022/11/06 20:03:26;;;;;;;9.93;6.00;;;;;;;7.15;100.00;97659.75;18493555;32;20475;-62
2022/11/06 20:13:31;;;;;;;8.50;5.70;;;;;;;7.15;100.00;97669.72;18494510;32;20327;-62
2022/11/06 20:23:35;;;;;;;8.30;5.70;;;;;;;7.16;100.00;97663.28;18493888;32;20442;-62
2022/11/06 20:33:38;;;;;;;6.67;5.00;;;;;;;7.22;100.00;97664.97;18503688;32;20053;-62
2022/11/06 20:43:41;;;;;;;5.97;4.50;;;;;;;7.30;100.00;97677.97;18504344;32;20116;-62
2022/11/06 20:53:44;;;;;;;4.50;3.77;;;;;;;7.36;100.00;97677.00;18495153;32;20077;-63
2022/11/06 21:03:49;;;;;;;6.90;4.20;;;;;;;7.38;100.00;97658.72;18481618;32;20104;-62
2022/11/06 21:13:53;;;;;;;5.60;4.15;;;;;;;7.36;100.00;97682.38;18494111;32;20045;-62
2022/11/06 21:23:56;;;;;;;5.65;4.60;;;;;;;7.44;100.00;97706.16;18488349;32;20113;-63
2022/11/06 21:34:02;;;;;;;5.43;3.80;;;;;;;7.44;100.00;97756.44;18502498;32;20046;-62
2022/11/06 21:44:07;;;;;;;5.83;4.27;;;;;;;7.48;100.00;97752.19;18501102;32;20065;-62
2022/11/06 22:04:32;;;;;;;7.70;3.50;;;;;;;7.54;100.00;97755.81;18565571;32;20109;-62
2022/11/06 22:14:35;;;;;;;5.00;3.63;;;;;;;7.58;100.00;97775.78;18564732;32;20108;-62
2022/11/06 22:24:37;;;;;;;3.70;3.00;;;;;;;7.60;100.00;97789.78;18564364;32;20405;-63
2022/11/06 22:34:40;;;;;;;3.80;2.97;;;;;;;7.63;100.00;97789.28;18563735;32;20113;-63
2022/11/06 22:44:42;;;;;;;5.67;4.00;;;;;;;7.69;100.00;97792.84;18549315;32;20052;-62
2022/11/06 22:54:45;;;;;;;6.73;4.70;;;;;;;7.63;100.00;97778.50;18561974;32;20057;-62
2022/11/06 23:04:47;;;;;;;7.97;4.30;;;;;;;7.34;100.00;97786.72;18555246;32;20076;-62
2022/11/06 23:14:50;;;;;;;5.90;4.43;;;;;;;7.03;100.00;97797.00;18561534;32;20085;-62
2022/11/06 23:24:53;;;;;;;5.63;4.27;;;;;;;6.88;100.00;97786.81;18561020;32;20048;-62
2022/11/06 23:34:56;;;;;;;5.87;4.27;;;;;;;6.94;100.00;97787.69;18560732;32;20068;-62
2022/11/06 23:55:20;;;;;;;5.73;4.23;;;;;;;7.18;100.00;97795.59;18548039;32;20445;-63
